Zhengding, China
Current Conditions -  °F | °C
As of 5:00 AM on Saturday 29 Nov 2014 (Local Time) from ZBSJ Reporting Station
Moderate Fog Moderate Fog  
Wind Chill: 37°   Ceiling: 100
Heat Index: 37°   Visibility: 0.06mi
Dew Point: 37°   Wind: 2mph
Humidity: 100%   Direction: 210°SSW
Pressure: 30.15"   Gusts: NA
Location:  38.14°N, 114.56°E
Report Text: ZBSJ 282100Z 21001MPS 0100 R15/0175N FG VV001 03/03 Q1021 NOSIG
Loading
Personal Weather Stations






























Interactive Weather Map New forecast layout! Learn more

10-Day Weather Forecast

Advertisements
Track Severe Weather on mobile